Forside
METAR-TAF:

METAR-TAF

Lufthavne :

Acapulco, Mexico

Breddekreds: 16-46N, længdekreds: 099-45W, højde: 5 m

Aktuelle vejr

Denne rapport blev lavet for 1 time og 8 minutter siden, kl. 23:48 UTC
Vind 8 kt fra vestsydvest
Temperatur 28°C
Fugtighed 74%
Tryk 1009 hPa
Sigt: 11.3 km
skyfri

METAR: MMAA 252348Z 25008KT 7SM SKC 28/23 A2980 RMK SLP085 57001 966 HZY

Tid: 18:56 (00:56 UTC)

Vejrudsigter

Denne rapport blev lavet for 2 timer og 13 minutter siden, kl. 22:43 UTC
Foreløbig gælder fra 26 på 00 UTC til 27 på 06 UTC
Vind 5 kt fra vest
Sigt: 10 km
skyfri
ændring
fra 26 på 04 UTC til 26 på 05 UTC
Vind 5 kt fra nordnordøst
Fra 26 på 1800 UTC
Vind 5 kt fra sydvest
Sigt: 10 km
skyfri
ændring
fra 26 på 21 UTC til 26 på 22 UTC
Vind 10 kt fra vestsydvest
Fra 27 på 0400 UTC
Vind 5 kt fra vest
Sigt: 10 km
skyfri

TAF: MMAA 252243Z 2600/2706 26005KT P6SM SKC TX30/2618Z TN23/2612Z BECMG 2604/2605 02005KT FM261800 22005KT P6SM SKC BECMG 2621/2622 24010KT FM270400 27005KT P6SM SKC

Vejrobservationer og prognoser fra mere end 4000 lufthavne (METAR og TAF).

De gule og røde prikker repræsenterer de meteorologiske stationer.

Flyt musen over at se navnet på stationen.

Så klik over at se vejr observationer og prognoser.

At skifte det kort: Klik på de grønne knapper med et sort kors for at zoome ind; på den grønne knap med en bindestreg for at zoome ud; eller på de grønne pile for tilstødende kort.


METAR-TAF: